sensor_id;sensor_type;location;lat;lon;timestamp;pressure;altitude;pressure_sealevel;temperature;humidity
47104;BME280;32853;52.164;5.400;2023-02-11T00:02:23;103222.44;;;8.63;100.00
47104;BME280;32853;52.164;5.400;2023-02-11T00:05:03;103305.34;;;9.02;100.00
47104;BME280;32853;52.164;5.400;2023-02-11T00:07:29;103276.53;;;8.89;100.00
47104;BME280;32853;52.164;5.400;2023-02-11T00:10:03;103319.34;;;9.18;100.00
47104;BME280;32853;52.164;5.400;2023-02-11T00:12:45;103299.41;;;9.37;100.00
47104;BME280;32853;52.164;5.400;2023-02-11T00:15:13;103222.50;;;8.68;100.00
47104;BME280;32853;52.164;5.400;2023-02-11T00:17:51;103180.69;;;8.54;100.00
47104;BME280;32853;52.164;5.400;2023-02-11T00:20:33;103300.28;;;9.31;100.00
47104;BME280;32853;52.164;5.400;2023-02-11T00:23:00;103252.28;;;9.07;100.00
47104;BME280;32853;52.164;5.400;2023-02-11T00:25:28;103231.31;;;8.88;100.00
47104;BME280;32853;52.164;5.400;2023-02-11T00:28:13;103307.25;;;9.39;100.00
47104;BME280;32853;52.164;5.400;2023-02-11T00:30:56;103310.78;;;9.45;100.00
47104;BME280;32853;52.164;5.400;2023-02-11T00:33:22;103296.75;;;9.29;100.00
47104;BME280;32853;52.164;5.400;2023-02-11T00:35:47;103285.34;;;9.08;100.00
47104;BME280;32853;52.164;5.400;2023-02-11T00:38:17;103252.31;;;9.14;100.00
47104;BME280;32853;52.164;5.400;2023-02-11T00:40:46;103309.00;;;9.41;100.00
47104;BME280;32853;52.164;5.400;2023-02-11T00:43:12;103264.50;;;9.18;100.00
47104;BME280;32853;52.164;5.400;2023-02-11T00:45:44;103303.66;;;9.12;100.00
47104;BME280;32853;52.164;5.400;2023-02-11T00:48:12;103284.47;;;9.06;100.00
47104;BME280;32853;52.164;5.400;2023-02-11T00:50:37;103301.09;;;9.24;100.00
47104;BME280;32853;52.164;5.400;2023-02-11T00:53:04;103302.78;;;9.19;100.00
47104;BME280;32853;52.164;5.400;2023-02-11T00:55:29;103267.09;;;9.12;100.00
47104;BME280;32853;52.164;5.400;2023-02-11T00:58:04;103201.63;;;8.72;100.00
47104;BME280;32853;52.164;5.400;2023-02-11T01:00:40;103273.19;;;9.13;100.00
47104;BME280;32853;52.164;5.400;2023-02-11T01:03:06;103291.53;;;9.29;100.00
47104;BME280;32853;52.164;5.400;2023-02-11T01:05:32;103289.78;;;9.27;100.00
47104;BME280;32853;52.164;5.400;2023-02-11T01:07:58;103253.13;;;9.07;100.00
47104;BME280;32853;52.164;5.400;2023-02-11T01:10:24;103254.88;;;9.07;100.00
47104;BME280;32853;52.164;5.400;2023-02-11T01:12:50;103282.78;;;9.14;100.00
47104;BME280;32853;52.164;5.400;2023-02-11T01:15:16;103252.19;;;8.94;100.00
47104;BME280;32853;52.164;5.400;2023-02-11T01:17:42;103237.41;;;8.93;100.00
47104;BME280;32853;52.164;5.400;2023-02-11T01:20:22;103205.97;;;8.72;100.00
47104;BME280;32853;52.164;5.400;2023-02-11T01:22:54;103254.91;;;9.13;100.00
47104;BME280;32853;52.164;5.400;2023-02-11T01:25:19;103248.78;;;9.00;100.00
47104;BME280;32853;52.164;5.400;2023-02-11T01:27:45;103241.72;;;8.85;100.00
47104;BME280;32853;52.164;5.400;2023-02-11T01:30:12;103259.16;;;8.88;100.00
47104;BME280;32853;52.164;5.400;2023-02-11T01:32:37;103235.59;;;8.77;100.00
47104;BME280;32853;52.164;5.400;2023-02-11T01:35:03;103277.44;;;8.95;100.00
47104;BME280;32853;52.164;5.400;2023-02-11T01:37:32;103286.25;;;9.13;100.00
47104;BME280;32853;52.164;5.400;2023-02-11T01:39:57;103287.06;;;9.04;100.00
47104;BME280;32853;52.164;5.400;2023-02-11T01:42:24;103288.00;;;9.15;100.00
47104;BME280;32853;52.164;5.400;2023-02-11T01:44:50;103287.13;;;9.15;100.00
47104;BME280;32853;52.164;5.400;2023-02-11T01:47:17;103292.41;;;9.24;100.00
47104;BME280;32853;52.164;5.400;2023-02-11T01:49:45;103229.53;;;8.80;100.00
47104;BME280;32853;52.164;5.400;2023-02-11T01:52:28;103276.69;;;9.16;100.00
47104;BME280;32853;52.164;5.400;2023-02-11T01:55:05;103285.44;;;9.21;100.00
47104;BME280;32853;52.164;5.400;2023-02-11T01:57:59;103283.66;;;9.16;100.00
47104;BME280;32853;52.164;5.400;2023-02-11T02:00:34;103286.25;;;9.13;100.00
47104;BME280;32853;52.164;5.400;2023-02-11T02:08:02;103297.56;;;9.19;100.00
47104;BME280;32853;52.164;5.400;2023-02-11T02:10:37;103270.59;;;9.14;100.00
47104;BME280;32853;52.164;5.400;2023-02-11T02:13:05;103121.22;;;8.04;100.00
47104;BME280;32853;52.164;5.400;2023-02-11T02:15:34;103292.34;;;9.13;100.00
47104;BME280;32853;52.164;5.400;2023-02-11T02:18:07;103270.53;;;9.05;100.00
47104;BME280;32853;52.164;5.400;2023-02-11T02:20:58;103281.94;;;9.21;100.00
47104;BME280;32853;52.164;5.400;2023-02-11T02:23:50;103281.03;;;9.17;100.00
47104;BME280;32853;52.164;5.400;2023-02-11T02:32:33;103232.94;;;8.76;100.00
47104;BME280;32853;52.164;5.400;2023-02-11T02:35:18;103266.06;;;8.81;100.00
47104;BME280;32853;52.164;5.400;2023-02-11T02:37:51;103260.00;;;8.88;100.00
47104;BME280;32853;52.164;5.400;2023-02-11T02:41:00;103256.50;;;8.83;100.00
47104;BME280;32853;52.164;5.400;2023-02-11T02:43:29;103224.16;;;8.60;100.00
47104;BME280;32853;52.164;5.400;2023-02-11T02:45:54;103150.84;;;8.20;100.00
47104;BME280;32853;52.164;5.400;2023-02-11T02:48:29;103264.38;;;8.95;100.00
47104;BME280;32853;52.164;5.400;2023-02-11T03:02:37;103262.56;;;8.81;100.00
47104;BME280;32853;52.164;5.400;2023-02-11T03:10:12;103257.34;;;8.79;100.00
47104;BME280;32853;52.164;5.400;2023-02-11T03:12:41;103189.25;;;8.38;100.00
47104;BME280;32853;52.164;5.400;2023-02-11T03:15:10;103162.19;;;8.22;100.00
47104;BME280;32853;52.164;5.400;2023-02-11T03:17:47;103221.63;;;8.73;100.00
47104;BME280;32853;52.164;5.400;2023-02-11T03:20:16;103234.63;;;8.63;100.00
47104;BME280;32853;52.164;5.400;2023-02-11T03:23:05;103236.34;;;8.64;100.00
47104;BME280;32853;52.164;5.400;2023-02-11T03:25:37;103230.31;;;8.66;100.00
47104;BME280;32853;52.164;5.400;2023-02-11T03:28:10;103225.97;;;8.71;100.00
47104;BME280;32853;52.164;5.400;2023-02-11T03:30:46;103166.72;;;8.49;100.00
47104;BME280;32853;52.164;5.400;2023-02-11T03:33:21;103040.03;;;7.51;100.00
47104;BME280;32853;52.164;5.400;2023-02-11T03:35:58;103222.50;;;8.72;100.00
47104;BME280;32853;52.164;5.400;2023-02-11T03:38:27;103204.22;;;8.68;100.00
47104;BME280;32853;52.164;5.400;2023-02-11T03:40:57;103201.63;;;8.72;100.00
47104;BME280;32853;52.164;5.400;2023-02-11T03:43:36;103229.47;;;8.72;100.00
47104;BME280;32853;52.164;5.400;2023-02-11T03:46:07;103177.84;;;8.30;100.00
47104;BME280;32853;52.164;5.400;2023-02-11T03:48:47;103185.63;;;8.22;100.00
47104;BME280;32853;52.164;5.400;2023-02-11T03:51:14;103205.66;;;8.31;100.00
47104;BME280;32853;52.164;5.400;2023-02-11T03:53:43;103209.25;;;8.42;100.00
47104;BME280;32853;52.164;5.400;2023-02-11T03:56:14;103214.47;;;8.39;100.00
47104;BME280;32853;52.164;5.400;2023-02-11T04:01:38;103232.78;;;8.47;100.00
47104;BME280;32853;52.164;5.400;2023-02-11T04:04:06;103235.41;;;8.53;100.00
47104;BME280;32853;52.164;5.400;2023-02-11T04:06:31;103228.44;;;8.47;100.00
47104;BME280;32853;52.164;5.400;2023-02-11T04:08:58;103143.72;;;7.98;100.00
47104;BME280;32853;52.164;5.400;2023-02-11T04:11:27;103045.34;;;7.62;100.00
47104;BME280;32853;52.164;5.400;2023-02-11T04:13:52;103190.97;;;8.34;100.00
47104;BME280;32853;52.164;5.400;2023-02-11T04:16:18;103231.94;;;8.51;100.00
47104;BME280;32853;52.164;5.400;2023-02-11T04:18:45;103240.53;;;8.42;100.00
47104;BME280;32853;52.164;5.400;2023-02-11T04:21:17;103209.31;;;8.47;100.00
47104;BME280;32853;52.164;5.400;2023-02-11T04:23:43;103235.38;;;8.48;100.00
47104;BME280;32853;52.164;5.400;2023-02-11T04:26:08;103116.69;;;7.80;100.00
47104;BME280;32853;52.164;5.400;2023-02-11T04:28:34;103247.56;;;8.48;100.00
47104;BME280;32853;52.164;5.400;2023-02-11T04:31:00;103055.63;;;7.43;100.00
47104;BME280;32853;52.164;5.400;2023-02-11T04:33:25;103251.13;;;8.63;100.00
47104;BME280;32853;52.164;5.400;2023-02-11T04:35:51;103241.63;;;8.73;100.00
47104;BME280;32853;52.164;5.400;2023-02-11T04:38:16;103243.28;;;8.60;100.00
47104;BME280;32853;52.164;5.400;2023-02-11T04:40:43;103191.84;;;8.36;100.00
47104;BME280;32853;52.164;5.400;2023-02-11T04:43:08;103240.75;;;8.65;100.00
47104;BME280;32853;52.164;5.400;2023-02-11T04:45:33;103232.94;;;8.72;100.00
47104;BME280;32853;52.164;5.400;2023-02-11T04:48:01;103249.31;;;8.50;100.00
47104;BME280;32853;52.164;5.400;2023-02-11T04:50:28;103230.31;;;8.71;100.00
47104;BME280;32853;52.164;5.400;2023-02-11T04:52:57;103219.00;;;8.69;100.00
47104;BME280;32853;52.164;5.400;2023-02-11T04:55:30;103238.22;;;8.86;100.00
47104;BME280;32853;52.164;5.400;2023-02-11T04:58:11;103250.44;;;8.89;100.00
47104;BME280;32853;52.164;5.400;2023-02-11T05:00:38;103219.03;;;8.75;100.00
47104;BME280;32853;52.164;5.400;2023-02-11T05:03:17;103245.25;;;8.90;100.00
47104;BME280;32853;52.164;5.400;2023-02-11T05:05:43;103252.94;;;8.75;100.00
47104;BME280;32853;52.164;5.400;2023-02-11T05:08:09;103251.31;;;8.92;100.00
47104;BME280;32853;52.164;5.400;2023-02-11T05:10:38;103241.72;;;8.84;100.00
47104;BME280;32853;52.164;5.400;2023-02-11T05:13:12;103255.75;;;9.09;100.00
47104;BME280;32853;52.164;5.400;2023-02-11T05:15:39;103263.56;;;8.98;100.00
47104;BME280;32853;52.164;5.400;2023-02-11T05:18:09;103233.06;;;8.94;100.00
47104;BME280;32853;52.164;5.400;2023-02-11T05:20:37;103248.78;;;9.06;100.00
47104;BME280;32853;52.164;5.400;2023-02-11T05:23:03;103247.09;;;9.14;100.00
47104;BME280;32853;52.164;5.400;2023-02-11T05:25:28;103243.56;;;9.06;100.00
47104;BME280;32853;52.164;5.400;2023-02-11T05:27:54;103199.94;;;8.81;100.00
47104;BME280;32853;52.164;5.400;2023-02-11T05:30:19;103231.25;;;8.82;100.00
47104;BME280;32853;52.164;5.400;2023-02-11T05:32:45;103248.78;;;9.01;100.00
47104;BME280;32853;52.164;5.400;2023-02-11T05:35:11;103207.78;;;8.85;100.00
47104;BME280;32853;52.164;5.400;2023-02-11T05:37:37;103244.47;;;9.13;100.00
47104;BME280;32853;52.164;5.400;2023-02-11T05:40:02;103244.44;;;9.07;100.00
47104;BME280;32853;52.164;5.400;2023-02-11T05:42:28;103235.78;;;9.14;100.00
47104;BME280;32853;52.164;5.400;2023-02-11T05:44:53;103177.28;;;8.75;100.00
47104;BME280;32853;52.164;5.400;2023-02-11T05:47:19;103245.34;;;9.19;100.00
47104;BME280;32853;52.164;5.400;2023-02-11T05:49:44;103171.25;;;8.78;100.00
47104;BME280;32853;52.164;5.400;2023-02-11T05:52:09;103239.34;;;9.37;100.00
47104;BME280;32853;52.164;5.400;2023-02-11T05:54:35;103241.94;;;9.31;100.00
47104;BME280;32853;52.164;5.400;2023-02-11T05:57:00;103059.63;;;8.20;100.00
47104;BME280;32853;52.164;5.400;2023-02-11T05:59:26;103170.38;;;8.85;100.00
47104;BME280;32853;52.164;5.400;2023-02-11T06:01:51;103213.09;;;9.00;100.00
47104;BME280;32853;52.164;5.400;2023-02-11T06:04:16;103188.75;;;9.01;100.00
47104;BME280;32853;52.164;5.400;2023-02-11T06:06:44;103175.69;;;9.00;100.00
47104;BME280;32853;52.164;5.400;2023-02-11T06:09:11;103176.59;;;9.13;100.00
47104;BME280;32853;52.164;5.400;2023-02-11T06:11:36;103265.50;;;9.49;100.00
47104;BME280;32853;52.164;5.400;2023-02-11T06:14:02;103246.28;;;9.27;100.00
47104;BME280;32853;52.164;5.400;2023-02-11T06:16:27;103260.28;;;9.43;100.00
47104;BME280;32853;52.164;5.400;2023-02-11T06:18:54;103228.00;;;9.23;100.00
47104;BME280;32853;52.164;5.400;2023-02-11T06:21:19;103259.41;;;9.43;100.00
47104;BME280;32853;52.164;5.400;2023-02-11T06:23:45;103262.03;;;9.50;100.00
47104;BME280;32853;52.164;5.400;2023-02-11T06:26:17;103248.09;;;9.44;100.00
47104;BME280;32853;52.164;5.400;2023-02-11T06:28:43;103224.56;;;9.31;100.00
47104;BME280;32853;52.164;5.400;2023-02-11T06:31:09;103240.16;;;9.21;100.00
47104;BME280;32853;52.164;5.400;2023-02-11T06:33:36;103261.94;;;9.27;100.00
47104;BME280;32853;52.164;5.400;2023-02-11T06:36:02;103264.63;;;9.46;100.00
47104;BME280;32853;52.164;5.400;2023-02-11T06:38:28;103257.63;;;9.39;100.00
47104;BME280;32853;52.164;5.400;2023-02-11T06:40:53;103228.81;;;9.17;100.00
47104;BME280;32853;52.164;5.400;2023-02-11T06:43:19;103198.31;;;8.99;100.00
47104;BME280;32853;52.164;5.400;2023-02-11T06:45:44;103201.78;;;9.01;100.00
47104;BME280;32853;52.164;5.400;2023-02-11T06:48:09;103189.44;;;8.70;100.00
47104;BME280;32853;52.164;5.400;2023-02-11T06:50:35;103228.88;;;9.23;100.00
47104;BME280;32853;52.164;5.400;2023-02-11T06:53:00;103201.78;;;9.01;100.00
47104;BME280;32853;52.164;5.400;2023-02-11T06:55:26;103143.31;;;8.63;100.00
47104;BME280;32853;52.164;5.400;2023-02-11T06:57:51;103138.97;;;8.60;100.00
47104;BME280;32853;52.164;5.400;2023-02-11T07:00:17;103248.97;;;9.50;100.00
47104;BME280;32853;52.164;5.400;2023-02-11T07:02:52;103223.59;;;9.19;100.00
47104;BME280;32853;52.164;5.400;2023-02-11T07:05:18;103201.75;;;8.92;100.00
47104;BME280;32853;52.164;5.400;2023-02-11T07:07:44;103265.53;;;9.54;100.00
47104;BME280;32853;52.164;5.400;2023-02-11T07:10:09;103248.97;;;9.52;100.00
47104;BME280;32853;52.164;5.400;2023-02-11T07:12:35;103278.53;;;9.42;100.00
47104;BME280;32853;52.164;5.400;2023-02-11T07:15:01;103278.53;;;9.40;100.00
47104;BME280;32853;52.164;5.400;2023-02-11T07:17:27;103225.34;;;9.12;100.00
47104;BME280;32853;52.164;5.400;2023-02-11T07:19:59;103266.38;;;9.45;100.00
47104;BME280;32853;52.164;5.400;2023-02-11T07:22:30;103279.44;;;9.45;100.00
47104;BME280;32853;52.164;5.400;2023-02-11T07:24:55;103247.09;;;9.19;100.00
47104;BME280;32853;52.164;5.400;2023-02-11T07:27:20;103246.22;;;9.12;100.00
47104;BME280;32853;52.164;5.400;2023-02-11T07:29:46;103282.91;;;9.46;100.00
47104;BME280;32853;52.164;5.400;2023-02-11T07:32:12;103280.09;;;9.03;100.00
47104;BME280;32853;52.164;5.400;2023-02-11T07:34:38;103272.47;;;9.43;100.00
47104;BME280;32853;52.164;5.400;2023-02-11T07:37:03;103278.47;;;9.26;100.00
47104;BME280;32853;52.164;5.400;2023-02-11T07:39:29;103250.63;;;9.25;100.00
47104;BME280;32853;52.164;5.400;2023-02-11T07:41:55;103288.19;;;9.58;100.00
47104;BME280;32853;52.164;5.400;2023-02-11T07:44:20;103292.50;;;9.45;100.00
47104;BME280;32853;52.164;5.400;2023-02-11T07:46:46;103297.81;;;9.65;100.00
47104;BME280;32853;52.164;5.400;2023-02-11T07:49:13;103309.97;;;9.57;100.00
47104;BME280;32853;52.164;5.400;2023-02-11T07:51:38;103112.72;;;8.33;100.00
47104;BME280;32853;52.164;5.400;2023-02-11T07:54:04;103264.59;;;9.32;100.00
47104;BME280;32853;52.164;5.400;2023-02-11T07:56:29;103139.88;;;8.73;100.00
47104;BME280;32853;52.164;5.400;2023-02-11T07:58:59;103243.69;;;9.34;100.00
47104;BME280;32853;52.164;5.400;2023-02-11T08:01:27;103221.88;;;9.19;100.00
47104;BME280;32853;52.164;5.400;2023-02-11T08:03:55;103275.97;;;9.49;100.00
47104;BME280;32853;52.164;5.400;2023-02-11T08:06:23;103298.63;;;9.64;100.00
47104;BME280;32853;52.164;5.400;2023-02-11T08:08:49;103309.13;;;9.67;100.00
47104;BME280;32853;52.164;5.400;2023-02-11T08:11:17;103259.41;;;9.50;100.00
47104;BME280;32853;52.164;5.400;2023-02-11T08:13:44;103311.78;;;9.76;100.00
47104;BME280;32853;52.164;5.400;2023-02-11T08:16:32;103324.78;;;9.64;100.00
47104;BME280;32853;52.164;5.400;2023-02-11T08:19:00;103295.19;;;9.70;100.00
47104;BME280;32853;52.164;5.400;2023-02-11T08:21:27;103303.91;;;9.69;100.00
47104;BME280;32853;52.164;5.400;2023-02-11T08:23:52;103306.53;;;9.81;100.00
47104;BME280;32853;52.164;5.400;2023-02-11T08:26:21;103259.41;;;9.52;100.00
47104;BME280;32853;52.164;5.400;2023-02-11T08:28:47;103268.19;;;9.68;100.00
47104;BME280;32853;52.164;5.400;2023-02-11T08:31:24;103301.34;;;9.90;100.00
47104;BME280;32853;52.164;5.400;2023-02-11T08:33:50;103303.09;;;10.08;100.00
47104;BME280;32853;52.164;5.400;2023-02-11T08:36:18;103300.50;;;10.00;100.00
47104;BME280;32853;52.164;5.400;2023-02-11T08:38:44;103311.81;;;9.92;100.00
47104;BME280;32853;52.164;5.400;2023-02-11T08:41:11;103333.63;;;9.98;100.00
47104;BME280;32853;52.164;5.400;2023-02-11T08:43:39;103311.81;;;9.90;100.00
47104;BME280;32853;52.164;5.400;2023-02-11T08:46:06;103329.28;;;10.09;100.00
47104;BME280;32853;52.164;5.400;2023-02-11T08:48:31;103293.50;;;9.87;100.00
47104;BME280;32853;52.164;5.400;2023-02-11T08:50:57;103288.22;;;9.69;100.00
47104;BME280;32853;52.164;5.400;2023-02-11T08:53:22;103315.28;;;9.89;100.00
47104;BME280;32853;52.164;5.400;2023-02-11T08:55:51;103331.78;;;9.73;100.00
47104;BME280;32853;52.164;5.400;2023-02-11T08:58:17;103314.41;;;9.93;100.00
47104;BME280;32853;52.164;5.400;2023-02-11T09:00:43;103306.56;;;9.92;100.00
47104;BME280;32853;52.164;5.400;2023-02-11T09:03:12;103343.19;;;10.08;100.00
47104;BME280;32853;52.164;5.400;2023-02-11T09:05:46;103282.16;;;9.77;100.00
47104;BME280;32853;52.164;5.400;2023-02-11T09:08:12;103272.53;;;9.72;100.00
47104;BME280;32853;52.164;5.400;2023-02-11T09:10:41;103314.44;;;10.07;100.00
47104;BME280;32853;52.164;5.400;2023-02-11T09:13:07;103340.69;;;10.33;100.00
47104;BME280;32853;52.164;5.400;2023-02-11T09:15:33;103340.69;;;10.31;100.00
47104;BME280;32853;52.164;5.400;2023-02-11T09:17:59;103350.19;;;10.14;100.00
47104;BME280;32853;52.164;5.400;2023-02-11T09:20:25;103338.00;;;10.17;100.00
47104;BME280;32853;52.164;5.400;2023-02-11T09:22:51;103362.47;;;10.26;100.00
47104;BME280;32853;52.164;5.400;2023-02-11T09:25:17;103365.13;;;10.45;100.00
47104;BME280;32853;52.164;5.400;2023-02-11T09:27:42;103355.53;;;10.58;100.00
47104;BME280;32853;52.164;5.400;2023-02-11T09:30:08;103361.63;;;10.48;100.00
47104;BME280;32853;52.164;5.400;2023-02-11T09:32:33;103314.47;;;10.10;100.00
47104;BME280;32853;52.164;5.400;2023-02-11T09:34:59;103371.19;;;10.40;100.00
47104;BME280;32853;52.164;5.400;2023-02-11T09:37:24;103364.25;;;10.56;100.00
47104;BME280;32853;52.164;5.400;2023-02-11T09:39:50;103371.22;;;10.73;100.00
47104;BME280;32853;52.164;5.400;2023-02-11T09:45:11;103367.75;;;10.55;100.00
47104;BME280;32853;52.164;5.400;2023-02-11T09:48:14;103334.56;;;10.40;100.00
47104;BME280;32853;52.164;5.400;2023-02-11T09:50:46;103378.19;;;10.73;100.00
47104;BME280;32853;52.164;5.400;2023-02-11T09:53:15;103335.44;;;10.48;100.00
47104;BME280;32853;52.164;5.400;2023-02-11T09:55:47;103229.88;;;9.85;100.00
47104;BME280;32853;52.164;5.400;2023-02-11T09:58:35;103228.13;;;9.84;100.00
47104;BME280;32853;52.164;5.400;2023-02-11T10:06:39;103324.97;;;10.30;100.00
47104;BME280;32853;52.164;5.400;2023-02-11T10:22:46;103417.47;;;11.02;100.00
47104;BME280;32853;52.164;5.400;2023-02-11T10:25:23;103414.84;;;11.05;100.00
47104;BME280;32853;52.164;5.400;2023-02-11T10:27:51;103398.25;;;11.07;100.00
47104;BME280;32853;52.164;5.400;2023-02-11T10:32:51;103427.03;;;11.43;100.00
47104;BME280;32853;52.164;5.400;2023-02-11T10:35:21;103425.25;;;11.58;100.00
47104;BME280;32853;52.164;5.400;2023-02-11T10:37:47;103426.09;;;11.67;100.00
47104;BME280;32853;52.164;5.400;2023-02-11T10:40:16;103435.75;;;11.46;100.00
47104;BME280;32853;52.164;5.400;2023-02-11T10:42:47;103401.72;;;11.29;100.00
47104;BME280;32853;52.164;5.400;2023-02-11T10:45:27;103330.19;;;11.03;100.00
47104;BME280;32853;52.164;5.400;2023-02-11T10:47:54;103331.97;;;10.87;100.00
47104;BME280;32853;52.164;5.400;2023-02-11T10:50:29;103434.84;;;11.61;100.00
47104;BME280;32853;52.164;5.400;2023-02-11T10:53:17;103430.47;;;11.61;100.00
47104;BME280;32853;52.164;5.400;2023-02-11T10:55:54;103408.69;;;11.43;100.00
47104;BME280;32853;52.164;5.400;2023-02-11T10:58:27;103394.75;;;11.22;100.00
47104;BME280;32853;52.164;5.400;2023-02-11T11:00:54;103439.22;;;11.60;100.00
47104;BME280;32853;52.164;5.400;2023-02-11T11:03:23;103447.06;;;11.80;100.00
47104;BME280;32853;52.164;5.400;2023-02-11T11:05:57;103372.00;;;11.37;100.00
47104;BME280;32853;52.164;5.400;2023-02-11T11:11:07;103446.13;;;11.86;100.00
47104;BME280;32853;52.164;5.400;2023-02-11T11:13:53;103452.22;;;12.00;100.00
47104;BME280;32853;52.164;5.400;2023-02-11T11:18:52;103453.16;;;11.84;100.00
47104;BME280;32853;52.164;5.400;2023-02-11T11:21:24;103392.88;;;11.69;100.00
47104;BME280;32853;52.164;5.400;2023-02-11T11:23:55;103457.47;;;12.00;100.00
47104;BME280;32853;52.164;5.400;2023-02-11T11:26:23;103337.06;;;11.39;100.00
47104;BME280;32853;52.164;5.400;2023-02-11T11:29:06;103463.50;;;12.19;100.00
47104;BME280;32853;52.164;5.400;2023-02-11T11:31:36;103295.22;;;11.18;100.00
47104;BME280;32853;52.164;5.400;2023-02-11T11:34:29;103449.53;;;12.15;100.00
47104;BME280;32853;52.164;5.400;2023-02-11T11:36:57;103466.09;;;12.31;100.00
47104;BME280;32853;52.164;5.400;2023-02-11T11:39:27;103483.56;;;12.34;100.00
47104;BME280;32853;52.164;5.400;2023-02-11T11:42:13;103480.00;;;12.45;100.00
47104;BME280;32853;52.164;5.400;2023-02-11T11:44:55;103468.69;;;12.34;100.00
47104;BME280;32853;52.164;5.400;2023-02-11T11:47:26;103483.53;;;12.38;100.00
47104;BME280;32853;52.164;5.400;2023-02-11T11:55:09;103391.84;;;12.11;100.00
47104;BME280;32853;52.164;5.400;2023-02-11T11:57:38;103456.50;;;12.21;100.00
47104;BME280;32853;52.164;5.400;2023-02-11T12:00:04;103454.59;;;12.47;100.00
47104;BME280;32853;52.164;5.400;2023-02-11T12:05:36;103451.88;;;12.63;100.00
47104;BME280;32853;52.164;5.400;2023-02-11T12:16:35;103437.94;;;12.51;100.00
47104;BME280;32853;52.164;5.400;2023-02-11T12:27:39;103442.81;;;13.03;100.00
47104;BME280;32853;52.164;5.400;2023-02-11T12:33:31;103443.38;;;13.41;100.00
47104;BME280;32853;52.164;5.400;2023-02-11T12:36:24;103315.47;;;12.54;100.00
47104;BME280;32853;52.164;5.400;2023-02-11T12:41:44;103445.03;;;13.51;100.00
47104;BME280;32853;52.164;5.400;2023-02-11T12:44:44;103446.13;;;13.28;100.00
47104;BME280;32853;52.164;5.400;2023-02-11T12:47:59;103439.78;;;13.49;100.00
47104;BME280;32853;52.164;5.400;2023-02-11T12:50:40;103343.13;;;12.91;100.00
47104;BME280;32853;52.164;5.400;2023-02-11T12:55:42;103452.19;;;13.36;100.00
47104;BME280;32853;52.164;5.400;2023-02-11T12:58:19;103444.19;;;13.47;100.00
47104;BME280;32853;52.164;5.400;2023-02-11T13:01:01;103399.69;;;13.30;100.00
47104;BME280;32853;52.164;5.400;2023-02-11T13:03:41;103438.69;;;13.70;100.00
47104;BME280;32853;52.164;5.400;2023-02-11T13:06:10;103434.28;;;13.71;100.00
47104;BME280;32853;52.164;5.400;2023-02-11T13:08:45;103445.00;;;13.55;100.00
47104;BME280;32853;52.164;5.400;2023-02-11T13:11:18;103444.84;;;13.68;100.00
47104;BME280;32853;52.164;5.400;2023-02-11T13:16:19;103399.84;;;13.07;100.00
47104;BME280;32853;52.164;5.400;2023-02-11T13:19:43;103448.44;;;13.59;100.00
47104;BME280;32853;52.164;5.400;2023-02-11T13:24:52;103429.31;;;13.45;100.00
47104;BME280;32853;52.164;5.400;2023-02-11T13:35:36;103239.00;;;12.84;100.00
47104;BME280;32853;52.164;5.400;2023-02-11T13:38:04;103429.59;;;13.97;100.00
47104;BME280;32853;52.164;5.400;2023-02-11T13:40:37;103419.34;;;13.73;100.00
47104;BME280;32853;52.164;5.400;2023-02-11T13:43:06;103415.84;;;13.75;100.00
47104;BME280;32853;52.164;5.400;2023-02-11T13:45:47;103369.84;;;13.36;100.00
47104;BME280;32853;52.164;5.400;2023-02-11T13:48:21;103387.06;;;13.60;100.00
47104;BME280;32853;52.164;5.400;2023-02-11T13:50:49;103383.53;;;13.64;100.00
47104;BME280;32853;52.164;5.400;2023-02-11T13:53:16;103438.50;;;13.84;100.00
47104;BME280;32853;52.164;5.400;2023-02-11T13:55:47;103346.94;;;13.46;100.00
47104;BME280;32853;52.164;5.400;2023-02-11T14:14:26;103439.72;;;13.57;100.00
47104;BME280;32853;52.164;5.400;2023-02-11T14:19:42;103440.75;;;13.42;100.00
47104;BME280;32853;52.164;5.400;2023-02-11T14:29:42;103438.88;;;13.53;100.00
47104;BME280;32853;52.164;5.400;2023-02-11T14:40:33;103435.47;;;13.44;100.00
47104;BME280;32853;52.164;5.400;2023-02-11T14:43:11;103452.13;;;13.44;100.00
47104;BME280;32853;52.164;5.400;2023-02-11T14:45:37;103409.31;;;13.33;100.00
47104;BME280;32853;52.164;5.400;2023-02-11T14:48:17;103398.94;;;13.19;100.00
47104;BME280;32853;52.164;5.400;2023-02-11T14:50:56;103406.59;;;13.39;100.00
47104;BME280;32853;52.164;5.400;2023-02-11T14:53:24;103458.38;;;13.32;100.00
47104;BME280;32853;52.164;5.400;2023-02-11T14:55:52;103449.59;;;13.33;100.00
47104;BME280;32853;52.164;5.400;2023-02-11T14:58:23;103338.13;;;12.64;100.00
47104;BME280;32853;52.164;5.400;2023-02-11T15:03:51;103432.84;;;13.44;100.00
47104;BME280;32853;52.164;5.400;2023-02-11T15:06:24;103285.66;;;12.59;100.00
47104;BME280;32853;52.164;5.400;2023-02-11T15:09:00;103381.31;;;13.26;100.00
47104;BME280;32853;52.164;5.400;2023-02-11T15:11:30;103451.97;;;13.58;100.00
47104;BME280;32853;52.164;5.400;2023-02-11T15:13:57;103448.47;;;13.57;100.00
47104;BME280;32853;52.164;5.400;2023-02-11T15:16:26;103441.53;;;13.49;100.00
47104;BME280;32853;52.164;5.400;2023-02-11T15:18:58;103454.78;;;13.40;100.00
47104;BME280;32853;52.164;5.400;2023-02-11T15:21:27;103464.31;;;13.50;100.00
47104;BME280;32853;52.164;5.400;2023-02-11T15:26:23;103461.06;;;13.25;100.00
47104;BME280;32853;52.164;5.400;2023-02-11T15:28:49;103449.63;;;13.32;100.00
47104;BME280;32853;52.164;5.400;2023-02-11T15:31:18;103414.66;;;13.22;100.00